.
WxDataArchive / Data Records for 2016-04-11
2016-04-10 April 2016 2016-04-12

Data Records for Monday, 11 April 2016

Time	Temp	Chill	HIndex	Humid	Dewpt	 Wind 	HiWind	WindDir	Rain 	Barom
-----	----	-----	------	-----	-----	------	------	-------	-----	-----
00:00	51.0	51.0	51.0	95	49.6	1	4	225	0.00	29.790 
00:05	51.0	51.0	51.0	95	49.6	0	3	248	0.00	29.790 
00:10	50.8	50.8	50.8	95	49.4	1	3	248	0.00	29.790 
00:15	50.8	50.8	50.8	95	49.4	1	2	248	0.00	29.791 
00:20	50.8	50.8	50.8	95	49.4	1	3	248	0.00	29.791 
00:25	50.7	50.7	50.7	95	49.3	1	4	248	0.00	29.791 
00:30	50.7	50.7	50.7	95	49.3	1	9	248	0.00	29.789 
00:35	50.7	50.7	50.7	95	49.3	1	4	225	0.01	29.789 
00:40	50.7	50.7	50.7	95	49.3	1	6	248	0.00	29.789 
00:45	50.7	50.7	50.7	95	49.3	1	3	248	0.00	29.789 
00:50	50.5	50.5	50.5	95	49.1	1	4	248	0.01	29.789 
00:55	50.5	50.5	50.5	94	48.8	1	3	90	0.00	29.789 
01:00	50.5	50.5	50.5	95	49.1	1	4	270	0.00	29.785 
01:05	50.5	50.5	50.5	95	49.1	1	4	248	0.00	29.785 
01:10	50.4	50.4	50.4	95	49.0	1	3	248	0.00	29.785 
01:15	50.4	50.4	50.4	95	49.0	1	4	248	0.00	29.782 
01:20	50.4	50.4	50.4	95	49.0	1	4	248	0.00	29.782 
01:25	50.4	50.4	50.4	95	49.0	1	4	270	0.00	29.782 
01:30	50.4	50.4	50.4	95	49.0	1	4	225	0.00	29.781 
01:35	50.2	50.2	50.2	95	48.8	1	4	248	0.00	29.781 
01:40	50.2	50.2	50.2	95	48.8	1	4	248	0.00	29.781 
01:45	50.2	50.2	50.2	95	48.8	1	3	248	0.00	29.781 
01:50	50.2	50.2	50.2	95	48.8	1	4	68	0.00	29.781 
01:55	50.2	50.2	50.2	95	48.8	1	4	248	0.00	29.781 
02:00	50.4	50.4	50.4	95	49.0	1	4	248	0.00	29.777 
02:05	50.2	50.2	50.2	95	48.8	0	3	248	0.01	29.777 
02:10	50.2	50.2	50.2	95	48.8	1	3	225	0.00	29.777 
02:15	50.2	50.2	50.2	95	48.8	1	3	225	0.00	29.766 
02:20	50.2	50.2	50.2	95	48.8	1	5	248	0.00	29.766 
02:25	50.2	50.2	50.2	95	48.8	1	5	248	0.00	29.766 
02:30	50.2	50.2	50.2	95	48.8	0	3	248	0.00	29.762 
02:35	50.2	50.2	50.2	95	48.8	1	4	202	0.00	29.762 
02:40	50.2	50.2	50.2	95	48.8	1	5	248	0.00	29.762 
02:45	50.2	50.2	50.2	95	48.8	0	3	248	0.00	29.764 
02:50	50.2	50.2	50.2	95	48.8	1	4	248	0.00	29.764 
02:55	50.2	50.2	50.2	95	48.8	1	4	248	0.00	29.764 
03:00	50.2	50.2	50.2	95	48.8	1	3	248	0.00	29.765 
03:05	50.2	50.2	50.2	95	48.8	1	4	248	0.00	29.765 
03:10	50.1	50.1	50.1	95	48.7	1	3	248	0.00	29.765 
03:15	50.1	50.1	50.1	95	48.7	1	5	248	0.00	29.761 
03:20	50.1	50.1	50.1	95	48.7	1	3	248	0.00	29.761 
03:25	50.1	50.1	50.1	95	48.7	1	4	248	0.00	29.761 
03:30	50.1	50.1	50.1	95	48.7	1	3	292	0.00	29.759 
03:35	50.1	50.1	50.1	95	48.7	1	3	270	0.00	29.759 
03:40	50.1	50.1	50.1	95	48.7	0	3	270	0.00	29.759 
03:45	50.1	50.1	50.1	95	48.7	0	3	248	0.00	29.764 
03:50	50.1	50.1	50.1	95	48.7	1	3	248	0.00	29.764 
03:55	50.1	50.1	50.1	95	48.7	0	2	248	0.00	29.764 
04:00	50.1	50.1	50.1	95	48.7	0	3	248	0.00	29.761 
04:05	50.1	50.1	50.1	95	48.7	0	2	248	0.00	29.761 
04:10	50.1	50.1	50.1	94	48.4	0	3	248	0.00	29.761 
04:15	50.1	50.1	50.1	95	48.7	1	2	248	0.00	29.757 
04:20	50.1	50.1	50.1	94	48.4	1	3	248	0.00	29.757 
04:25	50.1	50.1	50.1	94	48.4	0	3	248	0.00	29.757 
04:30	49.9	49.9	49.9	94	48.2	0	2	248	0.00	29.752 
04:35	49.9	49.9	49.9	94	48.2	0	2	248	0.00	29.752 
04:40	49.9	49.9	49.9	94	48.2	0	1	248	0.00	29.752 
04:45	49.8	49.8	49.8	94	48.1	0	2	248	0.00	29.756 
04:50	49.8	49.8	49.8	94	48.1	0	1	248	0.00	29.756 
04:55	49.8	49.8	49.8	94	48.1	0	2	248	0.00	29.756 
05:00	49.8	49.8	49.8	94	48.1	0	2	248	0.00	29.757 
05:05	49.8	49.8	49.8	95	48.4	0	1	248	0.00	29.757 
05:10	49.8	49.8	49.8	95	48.4	0	2	248	0.00	29.757 
05:15	49.8	49.8	49.8	95	48.4	0	1	248	0.00	29.756 
05:20	49.8	49.8	49.8	95	48.4	0	0	---	0.00	29.756 
05:25	49.8	49.8	49.8	95	48.4	0	0	---	0.00	29.756 
05:30	49.8	49.8	49.8	95	48.4	0	0	---	0.01	29.757 
05:35	49.9	49.9	49.9	95	48.5	0	0	---	0.01	29.757 
05:40	49.9	49.9	49.9	95	48.5	0	0	---	0.00	29.757 
05:45	49.9	49.9	49.9	95	48.5	0	0	---	0.00	29.763 
05:50	49.9	49.9	49.9	95	48.5	0	0	---	0.00	29.763 
05:55	49.9	49.9	49.9	95	48.5	0	0	---	0.00	29.763 
06:00	49.9	49.9	49.9	95	48.5	0	0	---	0.00	29.761 
06:05	49.9	49.9	49.9	95	48.5	0	0	---	0.01	29.761 
06:10	49.9	49.9	49.9	95	48.5	0	0	---	0.00	29.761 
06:15	49.9	49.9	49.9	95	48.5	0	0	---	0.00	29.759 
06:20	49.8	49.8	49.8	95	48.4	0	0	---	0.00	29.759 
06:25	49.9	49.9	49.9	95	48.5	0	0	---	0.00	29.759 
06:30	49.9	49.9	49.9	95	48.5	0	0	---	0.00	29.771 
06:35	49.9	49.9	49.9	95	48.5	0	0	---	0.00	29.771 
06:40	49.8	49.8	49.8	95	48.4	0	0	---	0.01	29.771 
06:45	49.8	49.8	49.8	95	48.4	0	0	---	0.00	29.766 
06:50	49.8	49.8	49.8	95	48.4	0	0	---	0.01	29.766 
06:55	49.8	49.8	49.8	95	48.4	0	0	---	0.00	29.766 
07:00	49.8	49.8	49.8	95	48.4	0	0	---	0.00	29.763 
07:05	49.8	49.8	49.8	95	48.4	0	0	---	0.01	29.763 
07:10	49.8	49.8	49.8	95	48.4	0	0	---	0.00	29.763 
07:15	49.9	49.9	49.9	95	48.5	0	0	---	0.00	29.770 
07:20	49.9	49.9	49.9	95	48.5	0	0	---	0.00	29.770 
07:25	49.9	49.9	49.9	95	48.5	0	0	---	0.00	29.770 
07:30	49.9	49.9	49.9	95	48.5	0	0	---	0.00	29.771 
07:35	49.9	49.9	49.9	95	48.5	0	0	---	0.00	29.771 
07:40	49.9	49.9	49.9	95	48.5	0	0	---	0.00	29.771 
07:45	49.9	49.9	49.9	95	48.5	0	0	---	0.00	29.774 
07:50	50.1	50.1	50.1	95	48.7	0	0	---	0.00	29.774 
07:55	50.1	50.1	50.1	95	48.7	0	0	---	0.00	29.774 
08:00	50.1	50.1	50.1	95	48.7	0	0	---	0.00	29.784 
08:05	50.1	50.1	50.1	95	48.7	0	0	---	0.01	29.784 
08:10	50.1	50.1	50.1	95	48.7	0	0	---	0.00	29.784 
08:15	50.1	50.1	50.1	95	48.7	0	0	---	0.00	29.784 
08:20	50.2	50.2	50.2	96	49.1	0	0	---	0.00	29.784 
08:25	50.2	50.2	50.2	96	49.1	0	0	---	0.00	29.784 
08:30	50.2	50.2	50.2	96	49.1	0	0	---	0.00	29.788 
08:35	50.2	50.2	50.2	96	49.1	0	0	---	0.00	29.788 
08:40	50.2	50.2	50.2	96	49.1	0	0	---	0.00	29.788 
08:45	50.2	50.2	50.2	96	49.1	0	0	---	0.00	29.789 
08:50	50.2	50.2	50.2	96	49.1	0	0	---	0.00	29.789 
08:55	50.2	50.2	50.2	96	49.1	0	0	---	0.00	29.789 
09:00	50.2	50.2	50.2	96	49.1	0	0	---	0.00	29.787 
09:05	50.4	50.4	50.4	96	49.3	0	0	---	0.00	29.787 
09:10	50.5	50.5	50.5	96	49.4	0	0	---	0.00	29.787 
09:15	50.7	50.7	50.7	96	49.6	0	0	---	0.00	29.795 
09:20	50.8	50.8	50.8	96	49.7	0	0	---	0.00	29.795 
09:25	51.0	51.0	51.0	96	49.9	0	0	---	0.00	29.795 
09:30	51.0	51.0	51.0	96	49.9	0	0	---	0.00	29.799 
09:35	51.0	51.0	51.0	96	49.9	0	0	---	0.00	29.799 
09:40	51.0	51.0	51.0	96	49.9	0	0	---	0.00	29.799 
09:45	51.0	51.0	51.0	96	49.9	0	0	---	0.00	29.805 
09:50	51.1	51.1	51.1	96	50.0	0	0	---	0.00	29.805 
09:55	51.1	51.1	51.1	96	50.0	0	0	---	0.00	29.805 
10:00	51.1	51.1	51.1	96	50.0	0	0	---	0.00	29.808 
10:05	51.1	51.1	51.1	96	50.0	0	0	---	0.00	29.808 
10:10	51.0	51.0	51.0	96	49.9	0	0	---	0.00	29.808 
10:15	50.8	50.8	50.8	96	49.7	0	0	---	0.00	29.811 
10:20	50.8	50.8	50.8	96	49.7	0	0	---	0.00	29.811 
10:25	51.0	51.0	51.0	96	49.9	0	0	---	0.00	29.811 
10:30	51.0	51.0	51.0	96	49.9	0	0	---	0.00	29.800 
10:35	51.1	51.1	51.1	96	50.0	0	0	---	0.00	29.800 
10:40	51.0	51.0	51.0	96	49.9	0	0	---	0.00	29.800 
10:45	51.1	51.1	51.1	96	50.0	0	0	---	0.00	29.794 
10:50	51.4	51.4	51.4	96	50.3	0	0	---	0.00	29.794 
10:55	51.7	51.7	51.7	96	50.6	0	0	---	0.00	29.794 
11:00	51.7	51.7	51.7	95	50.3	0	0	---	0.00	29.797 
11:05	52.0	52.0	52.0	95	50.6	0	0	---	0.00	29.797 
11:10	52.2	52.2	52.2	94	50.5	0	0	---	0.00	29.797 
11:15	52.5	52.5	52.5	94	50.8	0	0	---	0.00	29.798 
11:20	53.1	53.1	53.1	94	51.4	0	0	---	0.00	29.798 
11:25	53.3	53.3	53.3	93	51.3	0	1	292	0.00	29.798 
11:30	53.6	53.6	53.6	92	51.3	0	0	---	0.00	29.796 
11:35	53.9	53.9	53.9	90	51.0	0	0	---	0.00	29.796 
11:40	54.1	54.1	54.1	88	50.6	1	5	248	0.00	29.796 
11:45	54.2	54.2	54.2	86	50.1	1	4	248	0.00	29.792 
11:50	54.5	54.5	54.5	84	49.8	2	4	248	0.00	29.792 
11:55	54.8	54.8	54.8	83	49.7	1	3	248	0.00	29.792 
12:00	55.0	55.0	55.0	81	49.3	2	5	248	0.00	29.797 
12:05	55.3	55.3	55.3	80	49.2	1	4	225	0.00	29.797 
12:10	55.3	55.3	55.3	78	48.6	1	3	225	0.00	29.797 
12:15	55.4	55.4	55.4	77	48.3	2	5	225	0.00	29.807 
12:20	55.6	55.6	55.6	78	48.8	1	2	225	0.00	29.807 
12:25	55.7	55.7	55.7	77	48.6	2	5	248	0.00	29.807 
12:30	55.7	55.7	55.7	76	48.3	1	4	292	0.00	29.810 
12:35	55.6	55.6	55.6	75	47.8	2	5	248	0.00	29.810 
12:40	55.7	55.7	55.7	77	48.6	1	3	248	0.00	29.810 
12:45	55.9	55.9	55.9	77	48.8	1	3	248	0.00	29.810 
12:50	55.9	55.9	55.9	76	48.4	2	6	248	0.00	29.810 
12:55	55.7	55.7	55.7	75	47.9	1	3	248	0.00	29.810 
13:00	55.7	55.7	55.7	75	47.9	1	3	248	0.00	29.805 
13:05	55.7	55.7	55.7	76	48.3	1	4	270	0.00	29.805 
13:10	55.7	55.7	55.7	76	48.3	1	4	270	0.00	29.805 
13:15	55.6	55.6	55.6	75	47.8	1	4	270	0.00	29.808 
13:20	55.6	55.6	55.6	75	47.8	1	3	270	0.00	29.808 
13:25	55.4	55.4	55.4	74	47.3	1	5	248	0.00	29.808 
13:30	55.3	55.3	55.3	74	47.2	1	4	248	0.00	29.812 
13:35	55.3	55.3	55.3	74	47.2	1	3	248	0.00	29.812 
13:40	55.3	55.3	55.3	74	47.2	1	4	248	0.00	29.812 
13:45	55.3	55.3	55.3	73	46.8	1	4	248	0.00	29.813 
13:50	55.1	55.1	55.1	73	46.6	2	5	248	0.00	29.813 
13:55	55.1	55.1	55.1	73	46.6	2	4	248	0.00	29.813 
14:00	55.0	55.0	55.0	73	46.5	2	6	225	0.00	29.815 
14:05	54.8	54.8	54.8	72	45.9	2	6	270	0.00	29.815 
14:10	54.8	54.8	54.8	73	46.3	2	6	248	0.00	29.815 
14:15	54.8	54.8	54.8	73	46.3	2	5	248	0.00	29.821 
14:20	54.8	54.8	54.8	74	46.7	1	4	270	0.00	29.821 
14:25	54.8	54.8	54.8	73	46.3	2	6	270	0.00	29.821 
14:30	54.8	54.8	54.8	72	45.9	2	4	248	0.00	29.815 
14:35	55.0	55.0	55.0	73	46.5	1	4	248	0.00	29.815 
14:40	55.1	55.1	55.1	73	46.6	2	4	248	0.00	29.815 
14:45	55.1	55.1	55.1	71	45.9	2	5	270	0.00	29.814 
14:50	55.1	55.1	55.1	71	45.9	3	6	248	0.00	29.814 
14:55	55.1	55.1	55.1	70	45.5	2	6	248	0.00	29.814 
15:00	55.1	55.1	55.1	69	45.1	3	5	248	0.00	29.815 
15:05	55.3	55.3	55.3	69	45.3	2	6	270	0.00	29.815 
15:10	55.3	55.3	55.3	68	44.9	3	6	292	0.00	29.815 
15:15	55.6	55.6	55.6	69	45.6	2	6	292	0.00	29.817 
15:20	55.6	55.6	55.6	67	44.8	3	6	270	0.00	29.817 
15:25	55.6	55.6	55.6	66	44.4	2	5	248	0.00	29.817 
15:30	55.6	55.6	55.6	66	44.4	2	5	270	0.00	29.818 
15:35	55.3	55.3	55.3	60	41.7	3	5	270	0.00	29.818 
15:40	55.0	55.0	55.0	60	41.4	4	6	292	0.00	29.818 
15:45	55.0	55.0	55.0	62	42.2	3	5	270	0.00	29.823 
15:50	54.8	54.8	54.8	62	42.0	3	10	292	0.00	29.823 
15:55	55.0	55.0	55.0	63	42.6	2	5	270	0.00	29.823 
16:00	55.1	55.1	55.1	63	42.7	2	4	248	0.00	29.824 
16:05	55.3	55.3	55.3	64	43.3	2	9	270	0.00	29.824 
16:10	55.3	55.3	55.3	63	42.9	2	5	270	0.00	29.824 
16:15	55.3	55.3	55.3	64	43.3	2	5	270	0.00	29.827 
16:20	55.1	55.1	55.1	60	41.5	3	6	270	0.00	29.827 
16:25	55.0	55.0	55.0	60	41.4	3	7	292	0.00	29.827 
16:30	55.0	55.0	55.0	60	41.4	3	9	292	0.00	29.822 
16:35	55.0	55.0	55.0	64	43.0	2	6	292	0.00	29.822 
16:40	54.7	54.7	54.7	65	43.2	3	6	292	0.00	29.822 
16:45	54.4	54.4	54.4	66	43.3	2	6	292	0.00	29.833 
16:50	54.2	54.2	54.2	66	43.1	2	7	292	0.00	29.833 
16:55	54.2	54.2	54.2	67	43.5	2	6	315	0.00	29.833 
17:00	54.5	54.5	54.5	66	43.4	3	7	292	0.00	29.844 
17:05	54.4	54.4	54.4	65	42.9	3	7	292	0.00	29.844 
17:10	54.1	54.1	54.1	64	42.2	3	9	292	0.00	29.844 
17:15	53.3	53.3	53.3	62	40.6	4	10	292	0.00	29.855 
17:20	53.2	53.2	53.2	62	40.5	3	7	270	0.00	29.855 
17:25	52.9	52.9	52.9	62	40.2	5	10	315	0.00	29.855 
17:30	52.8	52.8	52.8	62	40.1	4	7	292	0.00	29.855 
17:35	52.6	52.6	52.6	62	40.0	4	11	292	0.00	29.855 
17:40	52.6	52.6	52.6	63	40.4	2	9	315	0.00	29.855 
17:45	52.8	52.8	52.8	61	39.7	2	6	292	0.00	29.849 
17:50	52.9	52.9	52.9	61	39.8	2	5	292	0.00	29.849 
17:55	53.1	53.1	53.1	61	40.0	2	4	315	0.00	29.849 
18:00	53.1	53.1	53.1	59	39.2	4	9	292	0.00	29.852 
18:05	52.9	52.9	52.9	59	39.0	3	10	338	0.00	29.852 
18:10	52.6	52.6	52.6	59	38.7	2	6	292	0.00	29.852 
18:15	52.5	52.5	52.5	59	38.6	3	9	315	0.00	29.860 
18:20	52.0	52.0	52.0	58	37.7	4	10	292	0.00	29.860 
18:25	52.0	52.0	52.0	58	37.7	3	10	315	0.00	29.860 
18:30	52.3	52.3	52.3	58	38.0	2	7	292	0.00	29.873 
18:35	52.5	52.5	52.5	57	37.7	4	10	292	0.00	29.873 
18:40	52.5	52.5	52.5	56	37.3	3	11	292	0.00	29.873 
18:45	52.2	52.2	52.2	56	37.0	4	15	292	0.00	29.877 
18:50	51.6	51.6	51.6	57	36.9	2	15	292	0.00	29.877 
18:55	50.8	50.8	50.8	57	36.1	3	9	292	0.00	29.877 
19:00	50.2	50.2	50.2	56	35.1	3	10	292	0.00	29.896 
19:05	49.8	49.8	49.8	57	35.2	3	9	338	0.00	29.896 
19:10	49.2	49.2	49.2	57	34.6	3	7	292	0.00	29.896 
19:15	48.8	48.8	48.8	57	34.3	3	10	292	0.00	29.907 
19:20	48.5	48.5	48.5	57	34.0	3	9	292	0.00	29.907 
19:25	48.2	46.8	48.2	56	33.2	4	10	292	0.00	29.907 
19:30	48.0	48.0	48.0	57	33.5	2	10	292	0.00	29.917 
19:35	47.7	47.7	47.7	57	33.2	3	8	338	0.00	29.917 
19:40	47.4	47.4	47.4	57	32.9	3	9	270	0.00	29.917 
19:45	47.3	47.3	47.3	56	32.4	3	9	292	0.00	29.927 
19:50	46.8	46.8	46.8	57	32.4	3	8	315	0.00	29.927 
19:55	46.4	46.4	46.4	58	32.4	3	9	292	0.00	29.927 
20:00	46.0	46.0	46.0	57	31.6	2	7	292	0.00	29.945 
20:05	45.7	45.7	45.7	57	31.3	2	6	292	0.00	29.945 
20:10	45.2	45.2	45.2	58	31.3	2	6	292	0.00	29.945 
20:15	44.9	44.9	44.9	57	30.6	2	9	338	0.00	29.953 
20:20	44.6	44.6	44.6	57	30.3	3	9	292	0.00	29.953 
20:25	44.3	44.3	44.3	57	30.0	2	7	292	0.00	29.953 
20:30	44.2	44.2	44.2	57	29.9	3	6	292	0.00	29.966 
20:35	43.9	43.9	43.9	57	29.7	2	6	292	0.00	29.966 
20:40	43.8	43.8	43.8	57	29.6	2	6	292	0.00	29.966 
20:45	43.5	43.5	43.5	57	29.3	2	5	292	0.00	29.980 
20:50	43.5	43.5	43.5	57	29.3	3	10	292	0.00	29.980 
20:55	43.2	43.2	43.2	57	29.0	3	8	292	0.00	29.980 
21:00	43.1	43.1	43.1	57	28.9	2	6	292	0.00	29.986 
21:05	42.9	42.9	42.9	56	28.3	2	9	292	0.00	29.986 
21:10	42.8	42.8	42.8	56	28.2	2	6	292	0.00	29.986 
21:15	42.6	42.6	42.6	56	28.0	1	3	292	0.00	29.996 
21:20	42.3	42.3	42.3	57	28.2	0	2	270	0.00	29.996 
21:25	42.2	42.2	42.2	57	28.1	0	3	270	0.00	29.996 
21:30	41.9	41.9	41.9	57	27.8	0	1	270	0.00	30.005 
21:35	41.8	41.8	41.8	58	28.1	0	2	270	0.00	30.005 
21:40	41.5	41.5	41.5	58	27.8	0	2	270	0.00	30.005 
21:45	41.3	41.3	41.3	59	28.1	0	2	270	0.00	30.012 
21:50	41.2	41.2	41.2	59	28.0	0	2	270	0.00	30.012 
21:55	41.1	41.1	41.1	59	27.9	0	1	270	0.00	30.012 
22:00	40.9	40.9	40.9	60	28.1	0	1	270	0.00	30.015 
22:05	40.8	40.8	40.8	60	28.0	0	2	270	0.00	30.015 
22:10	40.5	40.5	40.5	61	28.1	0	0	---	0.00	30.015 
22:15	40.2	40.2	40.2	61	27.8	0	1	270	0.00	30.016 
22:20	39.8	39.8	39.8	62	27.9	0	0	---	0.00	30.016 
22:25	39.3	39.3	39.3	63	27.8	0	0	---	0.00	30.016 
22:30	38.9	38.9	38.9	63	27.4	0	0	---	0.00	30.018 
22:35	38.5	38.5	38.5	64	27.4	0	0	---	0.00	30.018 
22:40	38.0	38.0	38.0	65	27.3	0	0	---	0.00	30.018 
22:45	37.6	37.6	37.6	67	27.7	0	0	---	0.00	30.025 
22:50	37.2	37.2	37.2	69	28.0	0	0	---	0.00	30.025 
22:55	36.9	36.9	36.9	69	27.7	0	0	---	0.00	30.025 
23:00	36.6	36.6	36.6	70	27.8	0	0	---	0.00	30.035 
23:05	36.2	36.2	36.2	71	27.7	0	0	---	0.00	30.035 
23:10	36.0	36.0	36.0	72	27.9	0	0	---	0.00	30.035 
23:15	35.8	35.8	35.8	73	28.0	0	0	---	0.00	30.041 
23:20	35.5	35.5	35.5	74	28.0	0	0	---	0.00	30.041 
23:25	35.2	35.2	35.2	75	28.1	0	0	---	0.00	30.041 
23:30	34.9	34.9	34.9	76	28.1	0	0	---	0.00	30.046 
23:35	34.6	34.6	34.6	77	28.1	0	0	---	0.00	30.046 
23:40	34.4	34.4	34.4	78	28.3	0	0	---	0.00	30.046 
23:45	34.1	34.1	34.1	78	28.0	0	0	---	0.00	30.049 
23:50	34.0	34.0	34.0	79	28.2	0	0	---	0.00	30.049 
23:55	33.8	33.8	33.8	79	28.0	0	0	---	0.00	30.049 

CoCoRaHS
IN-AL-39
A2 Web Hosting
Creative Commons License
GoDaddy
search engine by freefind advanced

loaded 2018-11-20 02:22:18 • last modified 2010-11-18 10:43:29
Privacy PolicyDisclaimer
• wx.awcolley.com is powered by PmWiki v.2002016 •
• all content (unless otherwise noted) © 2018 A W Colley